sensor_id;sensor_type;location;lat;lon;timestamp;pressure;altitude;pressure_sealevel;temperature;humidity
75656;BME280;64252;51.094;13.714;2023-03-16T00:00:11;101020.75;;;-2.66;100.00
75656;BME280;64252;51.094;13.714;2023-03-16T00:02:42;101019.34;;;-2.63;100.00
75656;BME280;64252;51.094;13.714;2023-03-16T00:05:09;101016.34;;;-2.67;100.00
75656;BME280;64252;51.094;13.714;2023-03-16T00:07:35;101019.53;;;-2.49;100.00
75656;BME280;64252;51.094;13.714;2023-03-16T00:10:01;101027.88;;;-2.54;100.00
75656;BME280;64252;51.094;13.714;2023-03-16T00:12:27;101024.38;;;-2.70;100.00
75656;BME280;64252;51.094;13.714;2023-03-16T00:14:53;101022.97;;;-2.68;100.00
75656;BME280;64252;51.094;13.714;2023-03-16T00:17:19;101015.81;;;-2.69;100.00
75656;BME280;64252;51.094;13.714;2023-03-16T00:19:46;101020.19;;;-2.62;100.00
75656;BME280;64252;51.094;13.714;2023-03-16T00:22:16;101023.50;;;-2.60;100.00
75656;BME280;64252;51.094;13.714;2023-03-16T00:24:42;101016.88;;;-2.64;100.00
75656;BME280;64252;51.094;13.714;2023-03-16T00:27:11;101015.16;;;-2.55;100.00
75656;BME280;64252;51.094;13.714;2023-03-16T00:29:44;101026.28;;;-2.66;100.00
75656;BME280;64252;51.094;13.714;2023-03-16T00:32:19;101030.75;;;-2.70;100.00
75656;BME280;64252;51.094;13.714;2023-03-16T00:34:47;101024.31;;;-2.60;100.00
75656;BME280;64252;51.094;13.714;2023-03-16T00:37:17;101029.03;;;-2.60;100.00
75656;BME280;64252;51.094;13.714;2023-03-16T00:39:45;101020.19;;;-2.62;100.00
75656;BME280;64252;51.094;13.714;2023-03-16T00:42:13;101023.28;;;-2.69;100.00
75656;BME280;64252;51.094;13.714;2023-03-16T00:44:39;101030.16;;;-2.67;100.00
75656;BME280;64252;51.094;13.714;2023-03-16T00:47:09;101030.22;;;-2.82;100.00
75656;BME280;64252;51.094;13.714;2023-03-16T00:49:39;101033.81;;;-2.76;100.00
75656;BME280;64252;51.094;13.714;2023-03-16T00:52:08;101034.16;;;-2.88;100.00
75656;BME280;64252;51.094;13.714;2023-03-16T00:54:42;101038.28;;;-2.85;100.00
75656;BME280;64252;51.094;13.714;2023-03-16T00:57:10;101036.94;;;-2.93;100.00
75656;BME280;64252;51.094;13.714;2023-03-16T00:59:37;101033.94;;;-3.01;100.00
75656;BME280;64252;51.094;13.714;2023-03-16T01:02:04;101040.22;;;-2.91;100.00
75656;BME280;64252;51.094;13.714;2023-03-16T01:04:30;101041.88;;;-2.90;100.00
75656;BME280;64252;51.094;13.714;2023-03-16T01:06:58;101032.00;;;-3.01;100.00
75656;BME280;64252;51.094;13.714;2023-03-16T01:09:24;101043.94;;;-3.16;100.00
75656;BME280;64252;51.094;13.714;2023-03-16T01:11:50;101038.16;;;-3.19;100.00
75656;BME280;64252;51.094;13.714;2023-03-16T01:14:19;101050.28;;;-3.15;100.00
75656;BME280;64252;51.094;13.714;2023-03-16T01:16:45;101053.56;;;-3.03;100.00
75656;BME280;64252;51.094;13.714;2023-03-16T01:19:12;101050.84;;;-3.18;100.00
75656;BME280;64252;51.094;13.714;2023-03-16T01:21:39;101067.44;;;-3.23;100.00
75656;BME280;64252;51.094;13.714;2023-03-16T01:24:05;101058.06;;;-3.27;100.00
75656;BME280;64252;51.094;13.714;2023-03-16T01:26:30;101064.66;;;-3.13;100.00
75656;BME280;64252;51.094;13.714;2023-03-16T01:28:56;101061.00;;;-2.98;100.00
75656;BME280;64252;51.094;13.714;2023-03-16T01:31:22;101067.34;;;-2.98;100.00
75656;BME280;64252;51.094;13.714;2023-03-16T01:33:48;101078.97;;;-3.06;100.00
75656;BME280;64252;51.094;13.714;2023-03-16T01:36:20;101072.06;;;-3.03;100.00
75656;BME280;64252;51.094;13.714;2023-03-16T01:38:53;101072.91;;;-3.08;100.00
75656;BME280;64252;51.094;13.714;2023-03-16T01:41:19;101085.06;;;-3.04;100.00
75656;BME280;64252;51.094;13.714;2023-03-16T01:43:45;101072.88;;;-2.98;100.00
75656;BME280;64252;51.094;13.714;2023-03-16T01:46:19;101081.16;;;-2.93;100.00
75656;BME280;64252;51.094;13.714;2023-03-16T01:56:55;101072.94;;;-3.18;100.00
75656;BME280;64252;51.094;13.714;2023-03-16T01:59:26;101082.03;;;-3.13;100.00
75656;BME280;64252;51.094;13.714;2023-03-16T02:01:52;101077.38;;;-3.22;100.00
75656;BME280;64252;51.094;13.714;2023-03-16T02:07:09;101080.72;;;-3.30;100.00
75656;BME280;64252;51.094;13.714;2023-03-16T02:09:39;101076.31;;;-3.36;100.00
75656;BME280;64252;51.094;13.714;2023-03-16T02:12:08;101068.03;;;-3.41;100.00
75656;BME280;64252;51.094;13.714;2023-03-16T02:14:48;101067.47;;;-3.43;100.00
75656;BME280;64252;51.094;13.714;2023-03-16T02:17:16;101065.28;;;-3.36;100.00
75656;BME280;64252;51.094;13.714;2023-03-16T02:22:17;101070.78;;;-3.36;100.00
75656;BME280;64252;51.094;13.714;2023-03-16T02:24:43;101065.84;;;-3.39;100.00
75656;BME280;64252;51.094;13.714;2023-03-16T02:27:12;101068.59;;;-3.34;100.00
75656;BME280;64252;51.094;13.714;2023-03-16T02:30:01;101073.81;;;-3.38;100.00
75656;BME280;64252;51.094;13.714;2023-03-16T02:32:32;101076.88;;;-3.39;100.00
75656;BME280;64252;51.094;13.714;2023-03-16T02:35:00;101079.09;;;-3.41;100.00
75656;BME280;64252;51.094;13.714;2023-03-16T02:37:29;101082.41;;;-3.44;100.00
75656;BME280;64252;51.094;13.714;2023-03-16T02:39:59;101081.34;;;-3.53;100.00
75656;BME280;64252;51.094;13.714;2023-03-16T02:42:27;101084.63;;;-3.51;100.00
75656;BME280;64252;51.094;13.714;2023-03-16T02:44:58;101078.28;;;-3.52;100.00
75656;BME280;64252;51.094;13.714;2023-03-16T02:47:42;101078.00;;;-3.56;100.00
75656;BME280;64252;51.094;13.714;2023-03-16T02:50:10;101082.97;;;-3.58;100.00
75656;BME280;64252;51.094;13.714;2023-03-16T02:52:37;101073.31;;;-3.55;100.00
75656;BME280;64252;51.094;13.714;2023-03-16T02:55:06;101085.72;;;-3.47;100.00
75656;BME280;64252;51.094;13.714;2023-03-16T02:57:32;101076.91;;;-3.49;100.00
75656;BME280;64252;51.094;13.714;2023-03-16T03:00:04;101080.19;;;-3.53;100.00
75656;BME280;64252;51.094;13.714;2023-03-16T03:02:46;101083.00;;;-3.63;100.00
75656;BME280;64252;51.094;13.714;2023-03-16T03:05:12;101093.22;;;-3.63;100.00
75656;BME280;64252;51.094;13.714;2023-03-16T03:07:38;101086.84;;;-3.64;100.00
75656;BME280;64252;51.094;13.714;2023-03-16T03:10:06;101087.69;;;-3.63;100.00
75656;BME280;64252;51.094;13.714;2023-03-16T03:12:32;101089.63;;;-3.64;100.00
75656;BME280;64252;51.094;13.714;2023-03-16T03:14:58;101087.97;;;-3.60;100.00
75656;BME280;64252;51.094;13.714;2023-03-16T03:17:24;101086.28;;;-3.61;100.00
75656;BME280;64252;51.094;13.714;2023-03-16T03:19:59;101081.28;;;-3.43;100.00
75656;BME280;64252;51.094;13.714;2023-03-16T03:22:27;101084.63;;;-3.46;100.00
75656;BME280;64252;51.094;13.714;2023-03-16T03:24:52;101092.91;;;-3.57;100.00
75656;BME280;64252;51.094;13.714;2023-03-16T03:27:19;101099.56;;;-3.63;100.00
75656;BME280;64252;51.094;13.714;2023-03-16T03:29:49;101099.28;;;-3.71;100.00
75656;BME280;64252;51.094;13.714;2023-03-16T03:32:15;101088.53;;;-3.78;100.00
75656;BME280;64252;51.094;13.714;2023-03-16T03:34:40;101097.34;;;-3.81;100.00
75656;BME280;64252;51.094;13.714;2023-03-16T03:37:07;101100.09;;;-3.86;100.00
75656;BME280;64252;51.094;13.714;2023-03-16T03:39:33;101106.44;;;-3.85;100.00
75656;BME280;64252;51.094;13.714;2023-03-16T03:41:59;101098.72;;;-3.88;100.00
75656;BME280;64252;51.094;13.714;2023-03-16T03:44:27;101104.00;;;-3.87;100.00
75656;BME280;64252;51.094;13.714;2023-03-16T03:46:54;101111.13;;;-3.86;100.00
75656;BME280;64252;51.094;13.714;2023-03-16T03:49:23;101116.13;;;-3.83;100.00
75656;BME280;64252;51.094;13.714;2023-03-16T03:51:50;101103.41;;;-3.79;100.00
75656;BME280;64252;51.094;13.714;2023-03-16T03:54:22;101104.50;;;-3.90;100.00
75656;BME280;64252;51.094;13.714;2023-03-16T03:57:00;101118.59;;;-3.96;100.00
75656;BME280;64252;51.094;13.714;2023-03-16T03:59:26;101116.69;;;-3.96;100.00
75656;BME280;64252;51.094;13.714;2023-03-16T04:02:14;101116.13;;;-3.93;100.00
75656;BME280;64252;51.094;13.714;2023-03-16T04:04:49;101112.00;;;-3.95;100.00
75656;BME280;64252;51.094;13.714;2023-03-16T04:07:15;101115.56;;;-3.90;100.00
75656;BME280;64252;51.094;13.714;2023-03-16T04:09:42;101113.34;;;-3.83;100.00
75656;BME280;64252;51.094;13.714;2023-03-16T04:12:15;101109.78;;;-3.83;100.00
75656;BME280;64252;51.094;13.714;2023-03-16T04:14:42;101113.34;;;-3.88;100.00
75656;BME280;64252;51.094;13.714;2023-03-16T04:17:08;101114.19;;;-3.97;100.00
75656;BME280;64252;51.094;13.714;2023-03-16T04:19:36;101115.28;;;-4.04;100.00
75656;BME280;64252;51.094;13.714;2023-03-16T04:22:05;101113.91;;;-4.06;100.00
75656;BME280;64252;51.094;13.714;2023-03-16T04:24:32;101112.25;;;-4.02;100.00
75656;BME280;64252;51.094;13.714;2023-03-16T04:26:59;101109.50;;;-4.02;100.00
75656;BME280;64252;51.094;13.714;2023-03-16T04:29:27;101110.84;;;-4.00;100.00
75656;BME280;64252;51.094;13.714;2023-03-16T04:31:55;101116.09;;;-4.03;100.00
75656;BME280;64252;51.094;13.714;2023-03-16T04:34:22;101117.47;;;-3.85;100.00
75656;BME280;64252;51.094;13.714;2023-03-16T04:36:51;101108.94;;;-3.94;100.00
75656;BME280;64252;51.094;13.714;2023-03-16T04:39:19;101114.72;;;-3.85;100.00
75656;BME280;64252;51.094;13.714;2023-03-16T04:41:45;101113.34;;;-3.83;100.00
75656;BME280;64252;51.094;13.714;2023-03-16T04:44:16;101115.81;;;-3.76;100.00
75656;BME280;64252;51.094;13.714;2023-03-16T04:46:42;101107.28;;;-3.75;100.00
75656;BME280;64252;51.094;13.714;2023-03-16T04:49:09;101103.41;;;-3.84;100.00
75656;BME280;64252;51.094;13.714;2023-03-16T04:51:36;101112.78;;;-3.85;100.00
75656;BME280;64252;51.094;13.714;2023-03-16T04:54:07;101105.63;;;-3.86;100.00
75656;BME280;64252;51.094;13.714;2023-03-16T04:56:36;101104.00;;;-3.87;100.00
75656;BME280;64252;51.094;13.714;2023-03-16T04:59:08;101106.44;;;-3.90;100.00
75656;BME280;64252;51.094;13.714;2023-03-16T05:01:50;101111.16;;;-4.01;100.00
75656;BME280;64252;51.094;13.714;2023-03-16T05:04:16;101101.75;;;-4.00;100.00
75656;BME280;64252;51.094;13.714;2023-03-16T05:06:42;101106.16;;;-4.09;100.00
75656;BME280;64252;51.094;13.714;2023-03-16T05:09:10;101103.69;;;-4.11;100.00
75656;BME280;64252;51.094;13.714;2023-03-16T05:11:37;101110.88;;;-4.10;100.00
75656;BME280;64252;51.094;13.714;2023-03-16T05:14:06;101118.84;;;-4.18;100.00
75656;BME280;64252;51.094;13.714;2023-03-16T05:16:38;101119.97;;;-4.19;100.00
75656;BME280;64252;51.094;13.714;2023-03-16T05:19:04;101118.59;;;-4.12;100.00
75656;BME280;64252;51.094;13.714;2023-03-16T05:21:33;101114.44;;;-4.14;100.00
75656;BME280;64252;51.094;13.714;2023-03-16T05:24:06;101107.81;;;-4.18;100.00
75656;BME280;64252;51.094;13.714;2023-03-16T05:26:32;101120.53;;;-3.97;100.00
75656;BME280;64252;51.094;13.714;2023-03-16T05:28:59;101115.56;;;-3.90;100.00
75656;BME280;64252;51.094;13.714;2023-03-16T05:31:28;101122.16;;;-3.86;100.00
75656;BME280;64252;51.094;13.714;2023-03-16T05:33:58;101118.88;;;-3.88;100.00
75656;BME280;64252;51.094;13.714;2023-03-16T05:36:24;101131.28;;;-3.85;100.00
75656;BME280;64252;51.094;13.714;2023-03-16T05:38:53;101124.94;;;-3.86;100.00
75656;BME280;64252;51.094;13.714;2023-03-16T05:41:27;101121.34;;;-3.71;100.00
75656;BME280;64252;51.094;13.714;2023-03-16T05:43:59;101124.41;;;-3.78;100.00
75656;BME280;64252;51.094;13.714;2023-03-16T05:46:32;101132.09;;;-3.80;100.00
75656;BME280;64252;51.094;13.714;2023-03-16T05:49:01;101129.91;;;-3.78;100.00
75656;BME280;64252;51.094;13.714;2023-03-16T05:51:28;101140.13;;;-3.58;100.00
75656;BME280;64252;51.094;13.714;2023-03-16T05:53:54;101144.81;;;-3.53;100.00
75656;BME280;64252;51.094;13.714;2023-03-16T05:56:30;101133.47;;;-3.57;100.00
75656;BME280;64252;51.094;13.714;2023-03-16T05:58:57;101133.22;;;-3.45;100.00
75656;BME280;64252;51.094;13.714;2023-03-16T06:01:25;101139.81;;;-3.26;100.00
75656;BME280;64252;51.094;13.714;2023-03-16T06:03:51;101141.16;;;-3.14;100.00
75656;BME280;64252;51.094;13.714;2023-03-16T06:06:21;101140.03;;;-3.07;100.00
75656;BME280;64252;51.094;13.714;2023-03-16T06:08:59;101144.97;;;-2.94;100.00
75656;BME280;64252;51.094;13.714;2023-03-16T06:11:26;101136.94;;;-2.96;100.00
75656;BME280;64252;51.094;13.714;2023-03-16T06:13:52;101156.59;;;-2.97;100.00
75656;BME280;64252;51.094;13.714;2023-03-16T06:16:18;101145.78;;;-2.94;100.00
75656;BME280;64252;51.094;13.714;2023-03-16T06:18:44;101139.66;;;-2.81;100.00
75656;BME280;64252;51.094;13.714;2023-03-16T06:21:10;101151.53;;;-2.70;100.00
75656;BME280;64252;51.094;13.714;2023-03-16T06:23:37;101153.44;;;-2.66;100.00
75656;BME280;64252;51.094;13.714;2023-03-16T06:26:07;101149.00;;;-2.61;100.00
75656;BME280;64252;51.094;13.714;2023-03-16T06:28:36;101157.47;;;-2.43;100.00
75656;BME280;64252;51.094;13.714;2023-03-16T06:31:02;101153.28;;;-2.35;100.00
75656;BME280;64252;51.094;13.714;2023-03-16T06:33:31;101154.31;;;-2.21;100.00
75656;BME280;64252;51.094;13.714;2023-03-16T06:35:58;101150.41;;;-2.15;100.00
75656;BME280;64252;51.094;13.714;2023-03-16T06:38:36;101149.53;;;-2.10;100.00
75656;BME280;64252;51.094;13.714;2023-03-16T06:41:13;101161.38;;;-2.00;100.00
75656;BME280;64252;51.094;13.714;2023-03-16T06:43:39;101157.50;;;-1.99;100.00
75656;BME280;64252;51.094;13.714;2023-03-16T06:46:05;101143.09;;;-1.96;100.00
75656;BME280;64252;51.094;13.714;2023-03-16T06:48:31;101156.84;;;-1.86;100.00
75656;BME280;64252;51.094;13.714;2023-03-16T06:50:57;101155.09;;;-1.71;100.00
75656;BME280;64252;51.094;13.714;2023-03-16T06:53:26;101152.00;;;-1.65;99.75
75656;BME280;64252;51.094;13.714;2023-03-16T06:55:55;101159.38;;;-1.55;99.95
75656;BME280;64252;51.094;13.714;2023-03-16T06:58:20;101165.38;;;-1.43;98.99
75656;BME280;64252;51.094;13.714;2023-03-16T07:00:46;101158.63;;;-1.32;98.54
75656;BME280;64252;51.094;13.714;2023-03-16T07:03:12;101156.84;;;-1.18;97.31
75656;BME280;64252;51.094;13.714;2023-03-16T07:05:45;101159.25;;;-1.11;97.11
75656;BME280;64252;51.094;13.714;2023-03-16T07:11:21;101151.00;;;-0.93;96.56
75656;BME280;64252;51.094;13.714;2023-03-16T07:13:50;101158.22;;;-0.68;95.56
75656;BME280;64252;51.094;13.714;2023-03-16T07:16:21;101157.78;;;-0.56;94.08
75656;BME280;64252;51.094;13.714;2023-03-16T07:18:47;101163.00;;;-0.50;93.21
75656;BME280;64252;51.094;13.714;2023-03-16T07:21:14;101166.81;;;-0.46;92.41
75656;BME280;64252;51.094;13.714;2023-03-16T07:23:46;101165.41;;;-0.43;92.62
75656;BME280;64252;51.094;13.714;2023-03-16T07:26:17;101166.41;;;-0.34;92.52
75656;BME280;64252;51.094;13.714;2023-03-16T07:28:52;101162.28;;;-0.18;91.71
75656;BME280;64252;51.094;13.714;2023-03-16T07:31:19;101166.56;;;-0.07;91.00
75656;BME280;64252;51.094;13.714;2023-03-16T07:33:45;101171.38;;;0.07;91.06
75656;BME280;64252;51.094;13.714;2023-03-16T07:36:17;101175.59;;;0.23;91.37
75656;BME280;64252;51.094;13.714;2023-03-16T07:38:49;101170.31;;;0.40;89.58
75656;BME280;64252;51.094;13.714;2023-03-16T07:41:16;101152.88;;;0.53;88.35
75656;BME280;64252;51.094;13.714;2023-03-16T07:43:42;101172.03;;;0.55;87.93
75656;BME280;64252;51.094;13.714;2023-03-16T07:46:13;101157.63;;;0.66;88.23
75656;BME280;64252;51.094;13.714;2023-03-16T07:48:40;101161.38;;;0.75;88.21
75656;BME280;64252;51.094;13.714;2023-03-16T07:51:09;101161.59;;;0.79;86.31
75656;BME280;64252;51.094;13.714;2023-03-16T07:53:38;101171.81;;;0.83;86.02
75656;BME280;64252;51.094;13.714;2023-03-16T07:56:20;101162.00;;;0.86;85.99
75656;BME280;64252;51.094;13.714;2023-03-16T07:58:50;101162.03;;;1.00;85.23
75656;BME280;64252;51.094;13.714;2023-03-16T08:01:16;101166.28;;;1.11;85.82
75656;BME280;64252;51.094;13.714;2023-03-16T08:03:41;101163.81;;;1.23;84.16
75656;BME280;64252;51.094;13.714;2023-03-16T08:06:07;101163.97;;;1.31;85.36
75656;BME280;64252;51.094;13.714;2023-03-16T08:08:34;101165.28;;;1.34;84.40
75656;BME280;64252;51.094;13.714;2023-03-16T08:10:59;101167.66;;;1.41;82.65
75656;BME280;64252;51.094;13.714;2023-03-16T08:13:36;101166.41;;;1.60;82.54
75656;BME280;64252;51.094;13.714;2023-03-16T08:16:02;101171.16;;;1.73;82.12
75656;BME280;64252;51.094;13.714;2023-03-16T08:18:39;101157.94;;;1.79;81.42
75656;BME280;64252;51.094;13.714;2023-03-16T08:21:08;101158.72;;;1.93;81.62
75656;BME280;64252;51.094;13.714;2023-03-16T08:23:34;101161.78;;;2.19;80.95
75656;BME280;64252;51.094;13.714;2023-03-16T08:26:01;101161.91;;;2.36;80.10
75656;BME280;64252;51.094;13.714;2023-03-16T08:28:27;101165.84;;;2.35;77.36
75656;BME280;64252;51.094;13.714;2023-03-16T08:30:55;101168.78;;;2.52;78.06
75656;BME280;64252;51.094;13.714;2023-03-16T08:33:34;101169.66;;;2.61;78.24
75656;BME280;64252;51.094;13.714;2023-03-16T08:36:01;101175.41;;;2.65;77.46
75656;BME280;64252;51.094;13.714;2023-03-16T08:38:26;101167.38;;;2.86;76.30
75656;BME280;64252;51.094;13.714;2023-03-16T08:40:52;101163.41;;;3.09;77.64
75656;BME280;64252;51.094;13.714;2023-03-16T08:43:20;101177.59;;;3.30;75.55
75656;BME280;64252;51.094;13.714;2023-03-16T08:45:47;101162.69;;;3.34;73.47
75656;BME280;64252;51.094;13.714;2023-03-16T08:48:15;101154.56;;;3.55;72.03
75656;BME280;64252;51.094;13.714;2023-03-16T08:50:43;101166.44;;;3.69;72.80
75656;BME280;64252;51.094;13.714;2023-03-16T09:00:03;101170.97;;;4.13;70.25
75656;BME280;64252;51.094;13.714;2023-03-16T09:02:46;101171.66;;;4.45;69.94
75656;BME280;64252;51.094;13.714;2023-03-16T09:05:13;101170.66;;;4.58;67.49
75656;BME280;64252;51.094;13.714;2023-03-16T09:07:39;101168.34;;;4.77;68.31
75656;BME280;64252;51.094;13.714;2023-03-16T09:10:06;101165.69;;;4.89;65.63
75656;BME280;64252;51.094;13.714;2023-03-16T09:12:35;101165.31;;;4.99;66.19
75656;BME280;64252;51.094;13.714;2023-03-16T09:15:03;101166.69;;;4.93;65.40
75656;BME280;64252;51.094;13.714;2023-03-16T09:17:28;101163.03;;;5.01;64.90
75656;BME280;64252;51.094;13.714;2023-03-16T09:19:54;101173.66;;;5.25;66.01
75656;BME280;64252;51.094;13.714;2023-03-16T09:22:21;101174.13;;;5.36;65.58
75656;BME280;64252;51.094;13.714;2023-03-16T09:24:48;101180.03;;;5.43;63.83
75656;BME280;64252;51.094;13.714;2023-03-16T09:27:14;101174.19;;;5.56;62.86
75656;BME280;64252;51.094;13.714;2023-03-16T09:29:42;101169.00;;;5.75;61.81
75656;BME280;64252;51.094;13.714;2023-03-16T09:32:08;101168.09;;;5.63;59.13
75656;BME280;64252;51.094;13.714;2023-03-16T09:34:34;101168.94;;;5.84;61.80
75656;BME280;64252;51.094;13.714;2023-03-16T09:37:00;101174.53;;;5.84;61.46
75656;BME280;64252;51.094;13.714;2023-03-16T09:39:26;101172.72;;;5.97;59.06
75656;BME280;64252;51.094;13.714;2023-03-16T09:44:28;101164.19;;;6.14;59.33
75656;BME280;64252;51.094;13.714;2023-03-16T09:46:58;101168.25;;;6.25;58.17
75656;BME280;64252;51.094;13.714;2023-03-16T09:49:30;101162.06;;;6.32;58.95
75656;BME280;64252;51.094;13.714;2023-03-16T09:52:07;101159.72;;;6.54;57.42
75656;BME280;64252;51.094;13.714;2023-03-16T09:57:35;101152.09;;;6.64;55.58
75656;BME280;64252;51.094;13.714;2023-03-16T10:13:01;101154.72;;;6.81;55.22
75656;BME280;64252;51.094;13.714;2023-03-16T10:15:31;101150.13;;;6.76;54.12
75656;BME280;64252;51.094;13.714;2023-03-16T10:18:10;101147.75;;;6.66;55.33
75656;BME280;64252;51.094;13.714;2023-03-16T10:20:39;101146.00;;;6.94;57.94
75656;BME280;64252;51.094;13.714;2023-03-16T10:23:18;101147.25;;;6.97;56.22
75656;BME280;64252;51.094;13.714;2023-03-16T10:25:55;101138.28;;;7.03;55.41
75656;BME280;64252;51.094;13.714;2023-03-16T10:28:23;101148.03;;;7.18;55.50
75656;BME280;64252;51.094;13.714;2023-03-16T10:30:56;101154.38;;;7.27;54.34
75656;BME280;64252;51.094;13.714;2023-03-16T10:33:24;101146.06;;;7.19;54.45
75656;BME280;64252;51.094;13.714;2023-03-16T10:41:42;101146.78;;;7.40;53.85
75656;BME280;64252;51.094;13.714;2023-03-16T10:44:24;101143.63;;;7.41;54.47
75656;BME280;64252;51.094;13.714;2023-03-16T10:47:04;101135.34;;;7.57;53.81
75656;BME280;64252;51.094;13.714;2023-03-16T10:49:44;101138.84;;;7.66;53.70
75656;BME280;64252;51.094;13.714;2023-03-16T10:54:48;101143.28;;;7.55;52.45
75656;BME280;64252;51.094;13.714;2023-03-16T11:00:41;101128.78;;;7.65;50.77
75656;BME280;64252;51.094;13.714;2023-03-16T11:09:35;101127.78;;;8.22;51.16
75656;BME280;64252;51.094;13.714;2023-03-16T11:12:25;101120.78;;;7.91;49.43
75656;BME280;64252;51.094;13.714;2023-03-16T11:14:52;101111.41;;;8.00;50.65
75656;BME280;64252;51.094;13.714;2023-03-16T11:17:27;101106.97;;;7.99;53.57
75656;BME280;64252;51.094;13.714;2023-03-16T11:20:01;101100.38;;;8.07;49.90
75656;BME280;64252;51.094;13.714;2023-03-16T11:22:30;101102.19;;;8.27;50.58
75656;BME280;64252;51.094;13.714;2023-03-16T11:27:45;101094.94;;;8.26;49.77
75656;BME280;64252;51.094;13.714;2023-03-16T11:32:50;101093.28;;;8.25;49.25
75656;BME280;64252;51.094;13.714;2023-03-16T11:35:23;101081.94;;;8.21;48.62
75656;BME280;64252;51.094;13.714;2023-03-16T11:40:40;101081.78;;;8.42;48.21
75656;BME280;64252;51.094;13.714;2023-03-16T11:48:46;101084.34;;;8.47;46.64
75656;BME280;64252;51.094;13.714;2023-03-16T11:51:39;101073.19;;;8.51;48.41
75656;BME280;64252;51.094;13.714;2023-03-16T11:56:56;101064.75;;;8.51;47.20
75656;BME280;64252;51.094;13.714;2023-03-16T11:59:45;101052.97;;;8.21;45.22
75656;BME280;64252;51.094;13.714;2023-03-16T12:02:32;101055.09;;;8.24;45.78
75656;BME280;64252;51.094;13.714;2023-03-16T12:10:22;101056.38;;;8.54;46.54
75656;BME280;64252;51.094;13.714;2023-03-16T12:18:14;101044.41;;;8.57;45.42
75656;BME280;64252;51.094;13.714;2023-03-16T12:20:47;101035.69;;;8.62;44.49
75656;BME280;64252;51.094;13.714;2023-03-16T12:23:19;101026.16;;;8.51;45.18
75656;BME280;64252;51.094;13.714;2023-03-16T12:25:48;101037.16;;;8.56;47.08
75656;BME280;64252;51.094;13.714;2023-03-16T12:28:23;101031.16;;;8.58;45.70
75656;BME280;64252;51.094;13.714;2023-03-16T12:30:54;101028.53;;;8.65;45.78
75656;BME280;64252;51.094;13.714;2023-03-16T12:33:52;101027.47;;;8.69;46.10
75656;BME280;64252;51.094;13.714;2023-03-16T12:39:01;101024.81;;;8.76;42.83
75656;BME280;64252;51.094;13.714;2023-03-16T12:47:16;101023.91;;;8.57;44.89
75656;BME280;64252;51.094;13.714;2023-03-16T12:49:45;101017.28;;;8.65;46.05
75656;BME280;64252;51.094;13.714;2023-03-16T12:52:12;101020.44;;;8.63;46.54
75656;BME280;64252;51.094;13.714;2023-03-16T12:55:06;101021.28;;;8.64;45.07
75656;BME280;64252;51.094;13.714;2023-03-16T12:57:32;101007.75;;;8.69;43.82
75656;BME280;64252;51.094;13.714;2023-03-16T12:59:59;101013.69;;;8.52;44.87
75656;BME280;64252;51.094;13.714;2023-03-16T13:02:29;101015.72;;;8.67;44.75
75656;BME280;64252;51.094;13.714;2023-03-16T13:05:01;101001.59;;;8.79;45.31
75656;BME280;64252;51.094;13.714;2023-03-16T13:07:32;101000.59;;;8.88;46.34
75656;BME280;64252;51.094;13.714;2023-03-16T13:10:09;101005.81;;;8.58;42.86
75656;BME280;64252;51.094;13.714;2023-03-16T13:12:38;100998.28;;;8.46;43.70
75656;BME280;64252;51.094;13.714;2023-03-16T13:17:50;100997.38;;;8.42;44.34
75656;BME280;64252;51.094;13.714;2023-03-16T13:20:32;100990.25;;;8.32;45.77
75656;BME280;64252;51.094;13.714;2023-03-16T13:28:36;100979.19;;;8.40;43.32
75656;BME280;64252;51.094;13.714;2023-03-16T13:31:05;100972.47;;;8.44;43.52
75656;BME280;64252;51.094;13.714;2023-03-16T13:33:34;100969.88;;;8.51;41.92
75656;BME280;64252;51.094;13.714;2023-03-16T13:36:03;100967.75;;;8.48;41.69
75656;BME280;64252;51.094;13.714;2023-03-16T13:38:31;100968.78;;;8.56;42.01
75656;BME280;64252;51.094;13.714;2023-03-16T13:41:04;100971.78;;;8.47;42.46
75656;BME280;64252;51.094;13.714;2023-03-16T13:43:37;100973.13;;;8.53;42.24
75656;BME280;64252;51.094;13.714;2023-03-16T13:46:18;100977.56;;;8.54;40.59
75656;BME280;64252;51.094;13.714;2023-03-16T13:48:48;100977.19;;;8.40;40.88
75656;BME280;64252;51.094;13.714;2023-03-16T13:51:19;100976.19;;;8.48;41.44
75656;BME280;64252;51.094;13.714;2023-03-16T13:53:47;100965.84;;;8.52;42.16
75656;BME280;64252;51.094;13.714;2023-03-16T13:56:33;100971.78;;;8.47;42.73
75656;BME280;64252;51.094;13.714;2023-03-16T13:59:01;100963.31;;;8.47;42.50
75656;BME280;64252;51.094;13.714;2023-03-16T14:01:37;100956.31;;;8.41;44.02
75656;BME280;64252;51.094;13.714;2023-03-16T14:04:11;100949.97;;;8.44;43.21
75656;BME280;64252;51.094;13.714;2023-03-16T14:09:52;100942.81;;;8.47;42.58
75656;BME280;64252;51.094;13.714;2023-03-16T14:12:35;100939.09;;;8.43;44.45
75656;BME280;64252;51.094;13.714;2023-03-16T14:15:15;100934.06;;;8.36;43.91
75656;BME280;64252;51.094;13.714;2023-03-16T14:17:44;100938.63;;;8.41;44.63
75656;BME280;64252;51.094;13.714;2023-03-16T14:20:21;100933.34;;;8.39;43.83
75656;BME280;64252;51.094;13.714;2023-03-16T14:23:02;100931.25;;;8.36;45.75
75656;BME280;64252;51.094;13.714;2023-03-16T14:25:47;100929.91;;;8.46;45.19
75656;BME280;64252;51.094;13.714;2023-03-16T14:28:15;100926.78;;;8.35;43.31
75656;BME280;64252;51.094;13.714;2023-03-16T14:30:53;100926.44;;;8.52;44.52
75656;BME280;64252;51.094;13.714;2023-03-16T14:33:26;100929.09;;;8.61;43.48
75656;BME280;64252;51.094;13.714;2023-03-16T14:35:58;100927.44;;;8.44;44.29
75656;BME280;64252;51.094;13.714;2023-03-16T14:38:31;100936.63;;;8.41;43.42